Terminal Aerodrome Forecast
Issued by NWS Los Angeles, CA

Home | Current Version | Previous Version | Text Only | Print | Product List | Glossary On
Versions: 1 2 3 4 5 6 7 8 9 10 11 12 13 14 15 16 17 18 19 20 21 22 23 24 25 26 27 28 29 30 31 32
876
FTUS46 KLOX 222208 AAC
TAFSMX
TAF AMD
KSMX 222208Z 2222/2318 18013KT P6SM -RA SCT040 BKN050 OVC110
     FM230000 24012G20KT 6SM -SHRA BR BKN025 OVC050
     FM230200 21012KT P6SM -SHRA OVC015
     FM230800 21008KT P6SM -SHRA OVC025=

USA.gov is the U.S. government's official web portal to all federal, state and local government web resources and services.